createdAt,value
2022-08-12T00:00:16.334Z,101810.25
2022-08-12T00:03:02.111Z,101811.09
2022-08-12T00:06:04.832Z,101808.41
2022-08-12T00:08:52.531Z,101811.09
2022-08-12T00:11:38.499Z,101806.72
2022-08-12T00:14:24.431Z,101812.25
2022-08-12T00:17:10.358Z,101812.25
2022-08-12T00:19:55.592Z,101817.63
2022-08-12T00:22:42.069Z,101817.63
2022-08-12T00:25:55.719Z,101817.63
2022-08-12T00:28:33.038Z,101808.88
2022-08-12T00:31:18.927Z,101815.91
2022-08-12T00:34:03.806Z,101816.91
2022-08-12T00:36:50.638Z,101820.63
2022-08-12T00:39:36.785Z,101818.59
2022-08-12T00:42:13.171Z,101817.09
2022-08-12T00:44:44.124Z,101816.91
2022-08-12T00:47:25.435Z,101808.03
2022-08-12T00:49:54.749Z,101816.91
2022-08-12T00:52:22.692Z,101814.25
2022-08-12T00:54:58.717Z,101808.88
2022-08-12T00:57:32.374Z,101807.19
2022-08-12T01:00:01.604Z,101819.59
2022-08-12T01:02:29.620Z,101815.25
2022-08-12T01:05:17.656Z,101814.41
2022-08-12T01:08:03.806Z,101810.88
2022-08-12T01:10:50.703Z,101808.38
2022-08-12T01:13:19.241Z,101812.16
2022-08-12T01:15:49.631Z,101814.88
2022-08-12T01:18:17.848Z,101816.59
2022-08-12T01:20:53.411Z,101820.09
2022-08-12T01:23:43.654Z,101820.25
2022-08-12T01:26:12.210Z,101822.94
2022-08-12T01:28:40.779Z,101828.28
2022-08-12T01:31:11.307Z,101830.97
2022-08-12T01:33:45.360Z,101819.41
2022-08-12T01:36:14.512Z,101825.59
2022-08-12T01:38:43.962Z,101823.94
2022-08-12T01:41:11.822Z,101815.88
2022-08-12T01:43:39.494Z,101819.41
2022-08-12T01:46:14.727Z,101818.56
2022-08-12T01:49:09.198Z,101816.03
2022-08-12T01:52:15.256Z,101817.88
2022-08-12T01:54:40.533Z,101808.16
2022-08-12T01:57:13.212Z,101813.53
2022-08-12T02:00:00.438Z,101808.16
2022-08-12T02:02:30.086Z,101802.78
2022-08-12T02:05:33.209Z,101806.47
2022-08-12T02:08:46.592Z,101804.81
2022-08-12T02:11:20.174Z,101798.72
2022-08-12T02:14:01.786Z,101797.72
2022-08-12T02:16:47.129Z,101802.25
2022-08-12T02:19:22.262Z,101796.03
2022-08-12T02:21:56.504Z,101799.72
2022-08-12T02:24:24.180Z,101791.50
2022-08-12T02:26:57.051Z,101789.00
2022-08-12T02:29:24.249Z,101785.31
2022-08-12T02:31:52.782Z,101796.03
2022-08-12T02:34:20.292Z,101792.34
2022-08-12T02:36:48.110Z,101788.00
2022-08-12T02:39:16.431Z,101783.63
2022-08-12T02:41:44.780Z,101782.63
2022-08-12T02:44:15.294Z,101783.63
2022-08-12T02:46:50.427Z,101780.09
2022-08-12T02:49:30.197Z,101785.31
2022-08-12T02:51:59.349Z,101782.78
2022-08-12T02:54:26.662Z,101781.06
2022-08-12T02:56:55.379Z,101778.41
2022-08-12T02:59:24.450Z,101780.22
2022-08-12T03:01:56.781Z,101773.03
2022-08-12T03:04:33.954Z,101767.81
2022-08-12T03:07:22.215Z,101767.81
2022-08-12T03:10:03.625Z,101765.31
2022-08-12T03:12:36.232Z,101764.44
2022-08-12T03:15:18.900Z,101767.13
2022-08-12T03:18:25.366Z,101768.13
2022-08-12T03:20:40.377Z,101768.28
2022-08-12T03:23:11.853Z,101769.81
2022-08-12T03:25:51.593Z,101760.25
2022-08-12T03:28:39.176Z,101763.75
2022-08-12T03:31:07.743Z,101770.13
2022-08-12T03:33:39.269Z,101770.13
2022-08-12T03:36:08.138Z,101772.81
2022-08-12T03:38:38.630Z,101776.50
2022-08-12T03:41:30.619Z,101778.34
2022-08-12T03:44:37.993Z,101777.69
2022-08-12T03:47:38.291Z,101788.41
2022-08-12T03:50:24.270Z,101781.19
2022-08-12T03:53:09.773Z,101791.22
2022-08-12T03:55:55.922Z,101777.81
2022-08-12T03:58:41.358Z,101779.81
2022-08-12T04:01:08.236Z,101776.13
2022-08-12T04:03:53.784Z,101777.81
2022-08-12T04:06:35.460Z,101774.47
2022-08-12T04:09:15.773Z,101775.28
2022-08-12T04:12:09.014Z,101776.47
2022-08-12T04:14:35.737Z,101773.78
2022-08-12T04:17:03.456Z,101775.47
2022-08-12T04:19:31.108Z,101773.78
2022-08-12T04:22:02.338Z,101777.31
2022-08-12T04:24:40.735Z,101776.47
2022-08-12T04:27:10.123Z,101774.78
2022-08-12T04:30:30.779Z,101782.84
2022-08-12T04:32:26.103Z,101778.44
2022-08-12T04:34:53.381Z,101776.75
2022-08-12T04:37:20.114Z,101780.16
2022-08-12T04:39:46.904Z,101782.13
2022-08-12T04:42:13.891Z,101782.13
2022-08-12T04:44:42.278Z,101782.13
2022-08-12T04:47:13.069Z,101774.25
2022-08-12T04:49:41.043Z,101775.09
2022-08-12T04:52:08.019Z,101779.63
2022-08-12T04:54:34.860Z,101778.78
2022-08-12T04:57:04.213Z,101781.47
2022-08-12T04:59:47.908Z,101783.31
2022-08-12T05:02:20.399Z,101781.47
2022-08-12T05:04:52.353Z,101787.00
2022-08-12T05:07:20.466Z,101787.84
2022-08-12T05:10:00.885Z,101786.16
2022-08-12T05:12:38.779Z,101796.88
2022-08-12T05:15:19.748Z,101789.47
2022-08-12T05:17:54.069Z,101798.75
2022-08-12T05:20:22.713Z,101792.34
2022-08-12T05:22:53.248Z,101800.31
2022-08-12T05:25:25.003Z,101793.91
2022-08-12T05:27:58.602Z,101794.19
2022-08-12T05:30:27.248Z,101800.84
2022-08-12T05:32:55.793Z,101801.00
2022-08-12T05:35:27.740Z,101802.13
2022-08-12T05:38:14.816Z,101807.50
2022-08-12T05:40:42.167Z,101798.78
2022-08-12T05:43:09.069Z,101805.81
2022-08-12T05:45:35.803Z,101800.78
2022-08-12T05:48:02.885Z,101798.09
2022-08-12T05:50:29.722Z,101802.47
2022-08-12T05:52:56.459Z,101799.78
2022-08-12T05:55:31.707Z,101800.47
2022-08-12T05:57:58.692Z,101799.44
2022-08-12T06:00:26.325Z,101805.53
2022-08-12T06:02:58.596Z,101804.53
2022-08-12T06:05:25.334Z,101805.53
2022-08-12T06:08:00.889Z,101803.53
2022-08-12T06:10:32.535Z,101811.41
2022-08-12T06:13:04.449Z,101806.59
2022-08-12T06:15:32.832Z,101816.03
2022-08-12T06:18:13.763Z,101813.06
2022-08-12T06:20:43.537Z,101811.06
2022-08-12T06:23:11.602Z,101809.03
2022-08-12T06:25:38.657Z,101806.06
2022-08-12T06:28:17.588Z,101806.75
2022-08-12T06:30:57.218Z,101814.63
2022-08-12T06:33:59.876Z,101807.44
2022-08-12T06:36:21.731Z,101811.88
2022-08-12T06:38:49.234Z,101811.78
2022-08-12T06:41:34.944Z,101818.53
2022-08-12T06:44:05.986Z,101809.50
2022-08-12T06:46:36.951Z,101818.22
2022-08-12T06:49:04.169Z,101810.88
2022-08-12T06:51:32.527Z,101814.22
2022-08-12T06:54:01.024Z,101813.22
2022-08-12T06:56:59.564Z,101805.03
2022-08-12T06:59:15.955Z,101809.41
2022-08-12T07:01:49.817Z,101813.59
2022-08-12T07:07:10.337Z,101818.66
2022-08-12T07:10:04.759Z,101818.66
2022-08-12T07:12:28.347Z,101811.31
2022-08-12T07:14:56.880Z,101816.50
2022-08-12T07:17:23.580Z,101812.81
2022-08-12T07:19:52.173Z,101818.03
2022-08-12T07:22:19.051Z,101816.00
2022-08-12T07:25:05.930Z,101806.16
2022-08-12T07:27:37.518Z,101807.91
2022-08-12T07:30:05.384Z,101807.00
2022-08-12T07:32:32.314Z,101810.34
2022-08-12T07:34:59.043Z,101804.66
2022-08-12T07:37:25.785Z,101808.88
2022-08-12T07:40:00.662Z,101804.34
2022-08-12T07:42:29.456Z,101808.72
2022-08-12T07:44:56.671Z,101811.06
2022-08-12T07:47:24.355Z,101809.09
2022-08-12T07:50:05.176Z,101807.06
2022-08-12T07:52:34.763Z,101806.09
2022-08-12T07:55:02.248Z,101799.72
2022-08-12T07:57:28.980Z,101811.31
2022-08-12T07:59:56.199Z,101805.78
2022-08-12T08:02:26.750Z,101807.47
2022-08-12T08:04:57.545Z,101807.31
2022-08-12T08:07:30.795Z,101813.53
2022-08-12T08:09:59.657Z,101812.53
2022-08-12T08:12:48.489Z,101813.19
2022-08-12T08:15:15.945Z,101817.72
2022-08-12T08:17:57.936Z,101813.19
2022-08-12T08:20:28.653Z,101806.16
2022-08-12T08:22:59.135Z,101809.50
2022-08-12T08:25:36.386Z,101812.19
2022-08-12T08:28:07.555Z,101809.50
2022-08-12T08:30:35.220Z,101807.69
2022-08-12T08:33:02.206Z,101811.22
2022-08-12T08:35:46.333Z,101812.88
2022-08-12T08:38:32.177Z,101815.56
2022-08-12T08:42:17.945Z,101812.06
2022-08-12T08:44:05.995Z,101809.38
2022-08-12T08:46:38.051Z,101816.41
2022-08-12T08:49:05.614Z,101810.88
2022-08-12T08:51:32.517Z,101811.72
2022-08-12T08:53:59.234Z,101814.25
2022-08-12T08:56:27.245Z,101809.72
2022-08-12T08:58:53.970Z,101808.72
2022-08-12T09:01:23.614Z,101813.94
2022-08-12T09:05:08.300Z,101808.56
2022-08-12T09:06:39.860Z,101808.56
2022-08-12T09:12:27.621Z,101805.19
2022-08-12T09:14:54.661Z,101804.34
2022-08-12T09:17:22.460Z,101803.50
2022-08-12T09:22:37.698Z,101788.41
2022-08-12T09:25:07.518Z,101796.28
2022-08-12T09:28:03.315Z,101788.22
2022-08-12T09:30:41.829Z,101793.59
2022-08-12T09:33:19.307Z,101782.03
2022-08-12T09:36:03.013Z,101780.34
2022-08-12T09:38:33.084Z,101782.03
2022-08-12T09:42:33.688Z,101782.84
2022-08-12T09:44:38.526Z,101787.38
2022-08-12T09:46:55.965Z,101781.19
2022-08-12T09:49:25.111Z,101776.66
2022-08-12T09:51:55.660Z,101770.28
2022-08-12T09:54:34.794Z,101772.97
2022-08-12T09:58:45.515Z,101773.81
2022-08-12T10:00:19.119Z,101765.91
2022-08-12T10:03:06.040Z,101766.75
2022-08-12T10:06:19.788Z,101762.22
2022-08-12T10:08:27.576Z,101759.53
2022-08-12T10:11:18.460Z,101756.84
2022-08-12T10:13:48.830Z,101751.47
2022-08-12T10:16:22.196Z,101753.19
2022-08-12T10:19:01.588Z,101753.19
2022-08-12T10:21:37.415Z,101747.81
2022-08-12T10:24:09.758Z,101739.75
2022-08-12T10:26:57.792Z,101737.06
2022-08-12T10:30:37.613Z,101737.06
2022-08-12T10:33:01.854Z,101726.34
2022-08-12T10:35:10.734Z,101731.38
2022-08-12T10:38:34.602Z,101726.00
2022-08-12T10:40:31.519Z,101726.00
2022-08-12T10:43:18.325Z,101726.66
2022-08-12T10:45:47.307Z,101723.13
2022-08-12T10:48:21.130Z,101716.75
2022-08-12T10:51:02.204Z,101710.56
2022-08-12T10:53:45.504Z,101702.50
2022-08-12T10:56:17.592Z,101708.03
2022-08-12T10:58:47.039Z,101718.59
2022-08-12T11:01:50.291Z,101714.06
2022-08-12T11:04:22.744Z,101711.56
2022-08-12T11:07:05.442Z,101703.50
2022-08-12T11:09:56.050Z,101705.53
2022-08-12T11:12:55.297Z,101706.53
2022-08-12T11:15:18.695Z,101701.16
2022-08-12T11:17:53.866Z,101685.88
2022-08-12T11:20:24.270Z,101697.31
2022-08-12T11:22:59.520Z,101685.03
2022-08-12T11:25:56.680Z,101692.09
2022-08-12T11:28:14.931Z,101690.25
2022-08-12T11:30:43.576Z,101686.38
2022-08-12T11:33:11.951Z,101681.03
2022-08-12T11:35:41.633Z,101676.47
2022-08-12T11:38:12.602Z,101683.56
2022-08-12T11:40:42.486Z,101674.63
2022-08-12T11:43:19.562Z,101674.50
2022-08-12T11:45:47.549Z,101665.59
2022-08-12T11:48:19.432Z,101668.28
2022-08-12T11:50:53.740Z,101666.44
2022-08-12T11:53:59.221Z,101664.59
2022-08-12T11:56:08.088Z,101660.22
2022-08-12T12:01:58.109Z,101665.44
2022-08-12T12:02:03.198Z,101661.91
2022-08-12T12:04:11.731Z,101662.22
2022-08-12T12:06:38.503Z,101654.16
2022-08-12T12:09:08.163Z,101654.69
2022-08-12T12:11:49.077Z,101647.47
2022-08-12T12:14:16.306Z,101655.53
2022-08-12T12:16:48.262Z,101645.47
2022-08-12T12:19:19.179Z,101647.31
2022-08-12T12:21:48.695Z,101645.47
2022-08-12T12:24:21.117Z,101652.50
2022-08-12T12:27:00.101Z,101637.41
2022-08-12T12:30:17.963Z,101640.75
2022-08-12T12:32:18.817Z,101639.06
2022-08-12T12:35:14.196Z,101636.25
2022-08-12T12:38:04.973Z,101627.19
2022-08-12T12:40:20.816Z,101627.31
2022-08-12T12:42:56.007Z,101632.69
2022-08-12T12:45:32.351Z,101632.56
2022-08-12T12:48:03.349Z,101624.50
2022-08-12T12:50:45.271Z,101621.63
2022-08-12T12:54:07.070Z,101631.72
2022-08-12T12:56:15.714Z,101628.84
2022-08-12T12:58:43.807Z,101613.59
2022-08-12T13:01:27.944Z,101630.53
2022-08-12T13:04:02.701Z,101618.94
2022-08-12T13:06:31.395Z,101616.94
2022-08-12T13:09:02.520Z,101610.72
2022-08-12T13:11:39.130Z,101609.88
2022-08-12T13:14:12.843Z,101602.00
2022-08-12T13:16:55.379Z,101604.03
2022-08-12T13:19:36.490Z,101603.16
2022-08-12T13:22:20.487Z,101602.31
2022-08-12T13:24:55.747Z,101613.91
2022-08-12T13:27:28.078Z,101604.88
2022-08-12T13:30:00.832Z,101608.38
2022-08-12T13:32:31.591Z,101601.16
2022-08-12T13:35:03.801Z,101609.22
2022-08-12T13:37:44.094Z,101603.84
2022-08-12T13:40:18.251Z,101607.69
2022-08-12T13:42:46.507Z,101598.97
2022-08-12T13:45:13.863Z,101590.59
2022-08-12T13:48:02.177Z,101597.78
2022-08-12T13:50:36.599Z,101594.13
2022-08-12T13:53:24.549Z,101596.81
2022-08-12T13:55:59.848Z,101599.50
2022-08-12T13:58:30.123Z,101582.38
2022-08-12T14:00:58.461Z,101578.66
2022-08-12T14:03:28.314Z,101583.03
2022-08-12T14:06:15.474Z,101587.38
2022-08-12T14:08:43.309Z,101579.34
2022-08-12T14:11:12.316Z,101574.81
2022-08-12T14:14:03.662Z,101567.56
2022-08-12T14:16:37.834Z,101570.25
2022-08-12T14:19:22.237Z,101569.44
2022-08-12T14:21:59.472Z,101564.06
2022-08-12T14:24:30.816Z,101548.78
2022-08-12T14:27:01.840Z,101558.50
2022-08-12T14:29:38.110Z,101552.16
2022-08-12T14:32:17.915Z,101553.13
2022-08-12T14:34:47.182Z,101547.63
2022-08-12T14:37:55.386Z,101553.84
2022-08-12T14:40:01.228Z,101544.09
2022-08-12T14:42:28.527Z,101551.81
2022-08-12T14:44:59.341Z,101551.16
2022-08-12T14:47:35.067Z,101545.09
2022-08-12T14:50:57.283Z,101545.09
2022-08-12T14:58:31.810Z,101534.69
2022-08-12T15:01:19.905Z,101536.03
2022-08-12T15:03:53.882Z,101534.19
2022-08-12T15:06:43.963Z,101531.34
2022-08-12T15:09:15.958Z,101528.66
2022-08-12T15:11:54.861Z,101533.34
2022-08-12T15:14:27.663Z,101534.66
2022-08-12T15:16:57.301Z,101528.97
2022-08-12T15:20:11.620Z,101523.25
2022-08-12T15:22:36.795Z,101522.09
2022-08-12T15:25:07.503Z,101515.00
2022-08-12T15:28:04.393Z,101507.13
2022-08-12T15:30:30.537Z,101503.78
2022-08-12T15:32:57.441Z,101512.84
2022-08-12T15:35:38.331Z,101502.78
2022-08-12T15:38:19.452Z,101508.31
2022-08-12T15:40:49.680Z,101492.22
2022-08-12T15:43:51.543Z,101500.91
2022-08-12T15:46:05.912Z,101489.69
2022-08-12T15:48:32.925Z,101499.44
2022-08-12T15:51:02.834Z,101492.38
2022-08-12T15:54:05.630Z,101490.84
2022-08-12T15:56:53.969Z,101494.56
2022-08-12T15:59:21.100Z,101491.53
2022-08-12T16:02:07.698Z,101491.03
2022-08-12T16:04:36.467Z,101489.38
2022-08-12T16:07:09.166Z,101497.06
2022-08-12T16:09:55.948Z,101495.06
2022-08-12T16:12:25.781Z,101489.69
2022-08-12T16:14:55.169Z,101491.38
2022-08-12T16:18:08.933Z,101485.31
2022-08-12T16:20:15.096Z,101478.94
2022-08-12T16:22:43.346Z,101479.78
2022-08-12T16:25:14.409Z,101484.97
2022-08-12T16:27:52.128Z,101476.91
2022-08-12T16:30:20.228Z,101476.91
2022-08-12T16:32:57.696Z,101472.88
2022-08-12T16:35:25.431Z,101469.19
2022-08-12T16:38:27.915Z,101467.19
2022-08-12T16:40:46.267Z,101465.16
2022-08-12T16:43:29.192Z,101469.38
2022-08-12T16:46:23.861Z,101459.63
2022-08-12T16:48:50.513Z,101466.84
2022-08-12T16:51:17.932Z,101458.78
2022-08-12T16:53:45.696Z,101461.47
2022-08-12T16:56:15.428Z,101458.97
2022-08-12T16:58:43.522Z,101458.13
2022-08-12T17:01:14.651Z,101459.13
2022-08-12T17:03:52.615Z,101451.38
2022-08-12T17:06:27.434Z,101460.44
2022-08-12T17:09:02.690Z,101452.38
2022-08-12T17:11:32.490Z,101463.00
2022-08-12T17:13:59.686Z,101461.28
2022-08-12T17:16:30.328Z,101457.63
2022-08-12T17:19:03.090Z,101465.81
2022-08-12T17:21:41.609Z,101466.66
2022-08-12T17:24:28.969Z,101461.28
2022-08-12T17:26:59.083Z,101468.19
2022-08-12T17:30:01.040Z,101465.81
2022-08-12T17:32:14.564Z,101465.69
2022-08-12T17:35:00.409Z,101466.66
2022-08-12T17:37:27.585Z,101450.53
2022-08-12T17:40:15.100Z,101458.59
2022-08-12T17:42:47.215Z,101456.09
2022-08-12T17:45:19.611Z,101465.81
2022-08-12T17:48:01.001Z,101463.13
2022-08-12T17:50:32.470Z,101464.16
2022-08-12T17:53:03.114Z,101454.25
2022-08-12T17:55:44.713Z,101464.16
2022-08-12T17:58:35.507Z,101464.16
2022-08-12T18:01:11.176Z,101461.47
2022-08-12T18:04:05.733Z,101462.28
2022-08-12T18:06:28.081Z,101463.31
2022-08-12T18:08:58.833Z,101470.34
2022-08-12T18:12:05.951Z,101469.19
2022-08-12T18:14:31.885Z,101470.88
2022-08-12T18:17:00.339Z,101473.22
2022-08-12T18:20:03.540Z,101477.59
2022-08-12T18:22:21.990Z,101482.13
2022-08-12T18:25:04.099Z,101471.38
2022-08-12T18:27:43.120Z,101468.88
2022-08-12T18:30:20.830Z,101473.41
2022-08-12T18:33:04.638Z,101477.06
2022-08-12T18:35:47.434Z,101485.31
2022-08-12T18:38:22.166Z,101484.47
2022-08-12T18:41:09.660Z,101487.00
2022-08-12T18:43:57.541Z,101485.00
2022-08-12T18:46:48.905Z,101480.63
2022-08-12T18:49:28.415Z,101485.00
2022-08-12T18:52:04.054Z,101488.34
2022-08-12T18:54:34.975Z,101477.59
2022-08-12T18:57:16.490Z,101484.63
2022-08-12T19:00:00.868Z,101482.81
2022-08-12T19:02:33.842Z,101482.97
2022-08-12T19:05:03.211Z,101484.81
2022-08-12T19:07:49.616Z,101490.88
2022-08-12T19:10:27.796Z,101492.03
2022-08-12T19:13:21.010Z,101488.34
2022-08-12T19:15:53.557Z,101485.00
2022-08-12T19:18:21.937Z,101495.75
2022-08-12T19:20:50.898Z,101497.41
2022-08-12T19:23:21.240Z,101490.38
2022-08-12T19:25:59.845Z,101492.03
2022-08-12T19:28:30.400Z,101487.69
2022-08-12T19:31:45.033Z,101497.59
2022-08-12T19:36:06.703Z,101502.13
2022-08-12T19:38:04.236Z,101496.06
2022-08-12T19:40:32.518Z,101502.13
2022-08-12T19:43:20.711Z,101499.44
2022-08-12T19:45:54.562Z,101510.19
2022-08-12T19:48:30.457Z,101504.81
2022-08-12T19:51:09.344Z,101506.63
2022-08-12T19:53:57.998Z,101514.69
2022-08-12T19:56:28.819Z,101517.22
2022-08-12T19:59:20.599Z,101516.41
2022-08-12T20:02:02.692Z,101522.59
2022-08-12T20:04:32.534Z,101519.09
2022-08-12T20:07:00.218Z,101518.06
2022-08-12T20:09:28.417Z,101524.28
2022-08-12T20:12:09.752Z,101518.06
2022-08-12T20:14:46.038Z,101529.66
2022-08-12T20:17:13.493Z,101522.59
2022-08-12T20:20:00.914Z,101520.56
2022-08-12T20:22:39.311Z,101519.91
2022-08-12T20:25:10.693Z,101524.47
2022-08-12T20:28:02.875Z,101520.94
2022-08-12T20:30:37.922Z,101530.81
2022-08-12T20:33:18.980Z,101524.59
2022-08-12T20:36:14.395Z,101529.13
2022-08-12T20:38:40.050Z,101528.31
2022-08-12T20:41:17.575Z,101517.22
2022-08-12T20:43:49.466Z,101509.84
2022-08-12T20:46:18.030Z,101511.34
2022-08-12T20:48:54.901Z,101513.88
2022-08-12T20:51:24.287Z,101516.72
2022-08-12T20:53:58.978Z,101515.53
2022-08-12T20:56:34.729Z,101515.91
2022-08-12T20:59:19.708Z,101509.16
2022-08-12T21:01:48.608Z,101506.84
2022-08-12T21:04:36.510Z,101512.22
2022-08-12T21:07:09.442Z,101521.09
2022-08-12T21:09:44.656Z,101517.91
2022-08-12T21:12:28.783Z,101514.38
2022-08-12T21:15:23.018Z,101517.38
2022-08-12T21:18:08.244Z,101508.84
2022-08-12T21:20:38.434Z,101513.00
2022-08-12T21:23:06.535Z,101511.03
2022-08-12T21:25:44.714Z,101512.69
2022-08-12T21:28:13.968Z,101513.53
2022-08-12T21:31:11.386Z,101510.19
2022-08-12T21:33:31.925Z,101516.53
2022-08-12T21:36:02.718Z,101515.72
2022-08-12T21:38:34.846Z,101513.84
2022-08-12T21:41:06.747Z,101508.66
2022-08-12T21:43:44.377Z,101517.56
2022-08-12T21:46:33.649Z,101507.16
2022-08-12T21:49:04.604Z,101505.16
2022-08-12T21:51:49.707Z,101510.34
2022-08-12T21:54:22.658Z,101501.28
2022-08-12T21:56:55.599Z,101511.19
2022-08-12T21:59:22.906Z,101507.84
2022-08-12T22:01:50.024Z,101516.06
2022-08-12T22:04:40.652Z,101518.94
2022-08-12T22:07:18.608Z,101524.97
2022-08-12T22:09:45.712Z,101517.91
2022-08-12T22:12:31.363Z,101521.59
2022-08-12T22:14:59.683Z,101523.59
2022-08-12T22:17:49.948Z,101522.78
2022-08-12T22:20:17.443Z,101522.78
2022-08-12T22:22:56.375Z,101521.94
2022-08-12T22:25:26.727Z,101520.25
2022-08-12T22:28:12.557Z,101521.09
2022-08-12T22:30:57.825Z,101521.28
2022-08-12T22:33:24.771Z,101523.97
2022-08-12T22:35:59.578Z,101520.25
2022-08-12T22:38:29.287Z,101520.56
2022-08-12T22:41:02.140Z,101512.38
2022-08-12T22:43:59.633Z,101510.53
2022-08-12T22:46:53.613Z,101516.91
2022-08-12T22:49:49.097Z,101516.91
2022-08-12T22:52:14.024Z,101510.84
2022-08-12T22:54:46.268Z,101509.84
2022-08-12T22:57:49.783Z,101514.38
2022-08-12T23:00:24.348Z,101517.91
2022-08-12T23:02:58.407Z,101517.91
2022-08-12T23:05:36.970Z,101520.56
2022-08-12T23:08:18.124Z,101509.00
2022-08-12T23:10:47.148Z,101514.38
2022-08-12T23:13:43.374Z,101513.53
2022-08-12T23:16:27.960Z,101511.84
2022-08-12T23:19:09.989Z,101506.50
2022-08-12T23:22:05.322Z,101511.84
2022-08-12T23:24:54.135Z,101518.25
2022-08-12T23:27:51.078Z,101515.56
2022-08-12T23:30:32.004Z,101514.72
2022-08-12T23:33:13.045Z,101513.88
2022-08-12T23:35:53.753Z,101508.50
2022-08-12T23:38:31.417Z,101513.88
2022-08-12T23:41:00.249Z,101515.56
2022-08-12T23:43:38.430Z,101511.19
2022-08-12T23:46:08.972Z,101511.19
2022-08-12T23:48:37.850Z,101520.09
2022-08-12T23:51:22.370Z,101517.22
2022-08-12T23:53:54.997Z,101512.22
2022-08-12T23:56:23.867Z,101512.22
2022-08-12T23:58:52.981Z,101517.56
